Alder, Washington
Current Conditions -  °F | °C
As of 11:58 AM on Saturday 20 Dec 2014 (Local Time) from KGRF Reporting Station
Light Rain Light Rain  
Wind Chill: 46°   Ceiling: 3100
Heat Index: 46°   Visibility: 6mi
Dew Point: 46°   Wind: 3mph
Humidity: 100%   Direction: 200°SSW
Pressure: 29.55"   Gusts: NA
Location:  46.8687°N, 122.208°W
Report Text: KGRF 201958Z 20003KT 6SM -RA FEW025 OVC031 08/08 A2955 RMK SLP011
Loading
Personal Weather Stations






























Interactive Weather Map New forecast layout! Learn more

10-Day Weather Forecast

Advertisements
Track Severe Weather on mobile